SAME/MDZ METAR and TAF weather

Enter ICAO airport designator
Station Type Date Time Source
SAME METAR 2021/09/24 02:00 UTC NOAA

SAME 240200Z 00000KT CAVOK 17/05 Q1020


Station Type Date Time Source
SAME Decoded METAR 2021/09/24 02:00 UTC NOAA

Mendoza Aerodrome, Argentina (SAME) 32-50S 068-47W 704M
Sep 23, 2021 - 10:00 PM EDT / 2021.09.24 0200 UTC
Wind: Calm:0
Visibility: greater than 7 mile(s):0
Temperature: 62 F (17 C)
Dew Point: 41 F (5 C)
Relative Humidity: 45%
Pressure (altimeter): 30.12 in. Hg (1020 hPa)
ob: SAME 240200Z 00000KT CAVOK 17/05 Q1020
cycle: 2

Station Type Date Time Source
SAME TAF 2021/09/24 00:00 UTC NOAA

TAF SAME 232300Z 2400/2424 36005KT CAVOK TX29/2420Z TN11/2411Z
BECMG 2402/2404 20005KT
BECMG 2415/2416 02010KT

Example: see airport list